Latest Weather Observations for Little Bay

IDN60801

Issued at 6:32 pm EST Monday 31 August 2015 (issued every 30 minutes, with the page automatically refreshed every 10 minutes)

About weather observations | Map of weather stations | Latest weather observations for NSW | Other Formats
Station Details ID: 066051 Name: LITTLE BAY (THE COAST GOLF CLUB) Lat: -33.98 Lon: 151.25 Height: 22.0 m
Data from the previous 72 hours. | See also: Recent months for locations in New South Wales
Date/Time
EST
Temp
°C
App
Temp
°C
Dew
Point
Rel
Hum
%
Delta-T
°C
Wind Press
QNH
hPa
Press
MSL
hPa
Rain
since 9 am
mm
Dir
 
Spd
km/h
Gust
km/h
Spd
kts
Gust
kts
31/06:30pm - - - - - S 11 19 6 10 - - -
31/06:00pm - - - - - S 15 26 8 14 - - -
31/05:30pm - - - - - S 15 28 8 15 - - -
31/05:00pm - - - - - S 19 26 10 14 - - -
31/04:30pm - - - - - S 20 30 11 16 - - -
31/04:00pm - - - - - S 22 30 12 16 - - -
31/03:30pm - - - - - S 20 30 11 16 - - -
31/03:00pm - - - - - S 20 30 11 16 - - -
31/02:30pm - - - - - S 20 28 11 15 - - -
31/02:00pm - - - - - S 19 26 10 14 - - -
31/01:30pm - - - - - S 20 28 11 15 - - -
31/01:00pm - - - - - S 22 30 12 16 - - -
31/12:30pm - - - - - SSW 22 32 12 17 - - -
31/12:00pm - - - - - S 24 32 13 17 - - -
31/11:30am - - - - - SSW 24 30 13 16 - - -
31/11:00am - - - - - S 22 30 12 16 - - -
31/10:30am - - - - - SSW 20 30 11 16 - - -
31/10:00am - - - - - SSW 20 28 11 15 - - -
31/09:30am - - - - - SSW 20 28 11 15 - - -
31/09:00am - - - - - SSW 20 26 11 14 - - -
31/08:30am - - - - - WSW 11 19 6 10 - - -
31/08:00am - - - - - WSW 11 17 6 9 - - -
31/07:30am - - - - - W 11 17 6 9 - - -
31/07:00am - - - - - W 13 17 7 9 - - -
31/06:30am - - - - - SW 19 30 10 16 - - -
31/06:00am - - - - - SW 13 24 7 13 - - -
31/05:30am - - - - - WSW 9 13 5 7 - - -
31/05:00am - - - - - WSW 11 20 6 11 - - -
31/04:30am - - - - - WSW 11 19 6 10 - - -
31/04:00am - - - - - WSW 11 20 6 11 - - -
31/03:30am - - - - - SW 19 28 10 15 - - -
31/03:00am - - - - - SSW 20 33 11 18 - - -
31/02:30am - - - - - SSW 24 35 13 19 - - -
31/02:00am - - - - - SSW 22 33 12 18 - - -
31/01:30am - - - - - SSW 24 35 13 19 - - -
31/01:00am - - - - - SSW 24 35 13 19 - - -
31/12:30am - - - - - SSW 24 35 13 19 - - -
31/12:00am - - - - - SSW 20 30 11 16 - - -
 
Date/Time
EST
Temp
°C
App
Temp
°C
Dew
Point
Rel
Hum
%
Delta-T
°C
Wind Press
QNH
hPa
Press
MSL
hPa
Rain
since 9 am
mm
Dir
 
Spd
km/h
Gust
km/h
Spd
kts
Gust
kts
30/11:30pm - - - - - SSW 17 24 9 13 - - -
30/11:00pm - - - - - SSW 15 24 8 13 - - -
30/10:30pm - - - - - SW 15 20 8 11 - - -
30/10:00pm - - - - - SSW 19 26 10 14 - - -
30/09:30pm - - - - - SSW 20 32 11 17 - - -
30/09:00pm - - - - - SSW 24 35 13 19 - - -
30/08:30pm - - - - - SSW 24 33 13 18 - - -
30/08:00pm - - - - - S 22 33 12 18 - - -
30/07:30pm - - - - - SSW 20 28 11 15 - - -
30/07:00pm - - - - - S 20 33 11 18 - - -
30/06:30pm - - - - - S 24 33 13 18 - - -
30/06:00pm - - - - - S 26 35 14 19 - - -
30/05:30pm - - - - - S 28 41 15 22 - - -
30/05:00pm - - - - - S 20 32 11 17 - - -
30/04:30pm - - - - - SSW 24 32 13 17 - - -
30/04:00pm - - - - - S 24 33 13 18 - - -
30/03:30pm - - - - - S 24 33 13 18 - - -
30/03:00pm - - - - - S 26 35 14 19 - - -
30/02:30pm - - - - - S 26 35 14 19 - - -
30/02:00pm - - - - - S 28 37 15 20 - - -
30/01:30pm - - - - - S 26 35 14 19 - - -
30/01:00pm - - - - - SSW 24 33 13 18 - - -
30/12:30pm - - - - - SSW 24 32 13 17 - - -
30/12:00pm - - - - - SSW 22 32 12 17 - - -
30/11:30am - - - - - SSW 20 30 11 16 - - -
30/11:00am - - - - - SSW 20 28 11 15 - - -
30/10:30am - - - - - SSW 20 28 11 15 - - -
30/10:00am - - - - - SSW 19 26 10 14 - - -
30/09:30am - - - - - SSW 17 24 9 13 - - -
30/09:00am - - - - - W 11 17 6 9 - - -
30/08:30am - - - - - W 13 19 7 10 - - -
30/08:00am - - - - - W 15 20 8 11 - - -
30/07:30am - - - - - W 13 17 7 9 - - -
30/07:00am - - - - - WNW 11 17 6 9 - - -
30/06:30am - - - - - W 13 19 7 10 - - -
30/06:00am - - - - - WNW 13 15 7 8 - - -
30/05:30am - - - - - W 11 17 6 9 - - -
30/05:00am - - - - - W 15 22 8 12 - - -
30/04:30am - - - - - W 15 20 8 11 - - -
30/04:00am - - - - - W 15 19 8 10 - - -
30/03:30am - - - - - W 13 19 7 10 - - -
30/03:00am - - - - - W 15 20 8 11 - - -
30/02:30am - - - - - W 15 20 8 11 - - -
30/02:00am - - - - - W 15 19 8 10 - - -
30/01:30am - - - - - WSW 19 24 10 13 - - -
30/01:00am - - - - - WSW 19 26 10 14 - - -
30/12:30am - - - - - WSW 17 28 9 15 - - -
30/12:00am - - - - - WSW 15 22 8 12 - - -
 
Date/Time
EST
Temp
°C
App
Temp
°C
Dew
Point
Rel
Hum
%
Delta-T
°C
Wind Press
QNH
hPa
Press
MSL
hPa
Rain
since 9 am
mm
Dir
 
Spd
km/h
Gust
km/h
Spd
kts
Gust
kts
29/11:30pm - - - - - WSW 15 24 8 13 - - -
29/11:00pm - - - - - WSW 15 26 8 14 - - -
29/10:30pm - - - - - SW 17 28 9 15 - - -
29/10:00pm - - - - - SW 15 24 8 13 - - -
29/09:30pm - - - - - SW 17 28 9 15 - - -
29/09:00pm - - - - - SW 15 24 8 13 - - -
29/08:30pm - - - - - WSW 9 13 5 7 - - -
29/08:00pm - - - - - SW 7 13 4 7 - - -
29/07:30pm - - - - - SW 7 11 4 6 - - -
29/07:00pm - - - - - CALM 0 0 0 0 - - -
29/06:30pm - - - - - CALM 0 0 0 0 - - -
29/06:00pm - - - - - ENE 2 4 1 2 - - -
29/05:30pm - - - - - E 6 7 3 4 - - -
29/05:00pm - - - - - ENE 6 7 3 4 - - -
29/04:30pm - - - - - ENE 6 9 3 5 - - -
29/04:00pm - - - - - ENE 7 11 4 6 - - -
29/03:30pm - - - - - SE 9 13 5 7 - - -
29/03:00pm - - - - - SSE 13 20 7 11 - - -
29/02:30pm - - - - - WSW 11 17 6 9 - - -
29/02:00pm - - - - - W 11 19 6 10 - - -
29/01:30pm - - - - - WNW 7 15 4 8 - - -
29/01:00pm - - - - - W 9 15 5 8 - - -
29/12:30pm - - - - - WSW 9 17 5 9 - - -
29/12:00pm - - - - - WSW 13 19 7 10 - - -
29/11:30am - - - - - SW 11 17 6 9 - - -
29/11:00am - - - - - WSW 11 17 6 9 - - -
29/10:30am - - - - - WSW 13 19 7 10 - - -
29/10:00am - - - - - W 13 19 7 10 - - -
29/09:30am - - - - - WNW 11 17 6 9 - - -
29/09:00am - - - - - W 13 17 7 9 - - -
29/08:30am - - - - - WNW 11 17 6 9 - - -
29/08:00am - - - - - WNW 11 15 6 8 - - -
29/07:30am - - - - - W 7 9 4 5 - - -
29/07:00am - - - - - WNW 9 11 5 6 - - -
29/06:30am - - - - - WNW 7 9 4 5 - - -
29/06:00am - - - - - WNW 7 7 4 4 - - -
29/05:30am - - - - - WNW 6 7 3 4 - - -
29/05:00am - - - - - W 6 7 3 4 - - -
29/04:30am - - - - - WSW 9 11 5 6 - - -
29/04:00am - - - - - WSW 7 9 4 5 - - -
29/03:30am - - - - - WSW 9 11 5 6 - - -
29/03:00am - - - - - SW 9 13 5 7 - - -
29/02:30am - - - - - SW 7 9 4 5 - - -
29/02:00am - - - - - SW 6 7 3 4 - - -
29/01:30am - - - - - WSW 7 9 4 5 - - -
29/01:00am - - - - - WSW 7 9 4 5 - - -
29/12:30am - - - - - WSW 7 11 4 6 - - -
29/12:00am - - - - - WSW 7 9 4 5 - - -
 
Date/Time
EST
Temp
°C
App
Temp
°C
Dew
Point
Rel
Hum
%
Delta-T
°C
Wind Press
QNH
hPa
Press
MSL
hPa
Rain
since 9 am
mm
Dir
 
Spd
km/h
Gust
km/h
Spd
kts
Gust
kts
28/11:30pm - - - - - W 7 11 4 6 - - -
28/11:00pm - - - - - SSW 7 11 4 6 - - -
28/10:30pm - - - - - SW 9 15 5 8 - - -
28/10:00pm - - - - - SSW 15 24 8 13 - - -
28/09:30pm - - - - - SSW 15 20 8 11 - - -
28/09:00pm - - - - - SSW 17 24 9 13 - - -
28/08:30pm - - - - - SSW 17 22 9 12 - - -
28/08:00pm - - - - - SSW 17 24 9 13 - - -
28/07:30pm - - - - - SSW 17 26 9 14 - - -
28/07:00pm - - - - - S 17 24 9 13 - - -

Other Formats:

Comma delimited format used in spreadsheet applications
http://www.bom.gov.au/fwo/IDN60801/IDN60801.94780.axf

JavaScript Object Notation format (JSON) in row-major order
http://www.bom.gov.au/fwo/IDN60801/IDN60801.94780.json